sensor_id;sensor_type;location;lat;lon;timestamp;pressure;altitude;pressure_sealevel;temperature;humidity
27613;BME280;15036;48.094;-1.690;2022-08-21T00:02:01;101208.97;;;22.71;52.67
27613;BME280;15036;48.094;-1.690;2022-08-21T00:04:26;101191.47;;;22.75;52.05
27613;BME280;15036;48.094;-1.690;2022-08-21T00:06:52;101190.72;;;22.48;52.96
27613;BME280;15036;48.094;-1.690;2022-08-21T00:09:18;101196.78;;;22.08;54.13
27613;BME280;15036;48.094;-1.690;2022-08-21T00:11:43;101192.66;;;22.53;53.09
27613;BME280;15036;48.094;-1.690;2022-08-21T00:14:13;101193.16;;;22.08;54.16
27613;BME280;15036;48.094;-1.690;2022-08-21T00:16:38;101193.06;;;22.29;53.81
27613;BME280;15036;48.094;-1.690;2022-08-21T00:19:04;101200.59;;;22.34;53.69
27613;BME280;15036;48.094;-1.690;2022-08-21T00:21:30;101205.03;;;22.62;52.88
27613;BME280;15036;48.094;-1.690;2022-08-21T00:23:55;101196.34;;;22.58;53.16
27613;BME280;15036;48.094;-1.690;2022-08-21T00:26:21;101191.22;;;21.60;56.31
27613;BME280;15036;48.094;-1.690;2022-08-21T00:28:46;101194.53;;;21.35;57.04
27613;BME280;15036;48.094;-1.690;2022-08-21T00:31:14;101195.44;;;21.63;56.04
27613;BME280;15036;48.094;-1.690;2022-08-21T00:33:39;101192.53;;;21.52;56.63
27613;BME280;15036;48.094;-1.690;2022-08-21T00:36:04;101181.84;;;22.19;54.87
27613;BME280;15036;48.094;-1.690;2022-08-21T00:38:30;101181.56;;;22.21;54.77
27613;BME280;15036;48.094;-1.690;2022-08-21T00:40:57;101178.59;;;22.32;54.22
27613;BME280;15036;48.094;-1.690;2022-08-21T00:43:25;101179.56;;;22.48;53.64
27613;BME280;15036;48.094;-1.690;2022-08-21T00:45:53;101180.84;;;21.77;55.62
27613;BME280;15036;48.094;-1.690;2022-08-21T00:48:18;101182.91;;;21.38;57.00
27613;BME280;15036;48.094;-1.690;2022-08-21T00:50:46;101195.19;;;21.69;55.95
27613;BME280;15036;48.094;-1.690;2022-08-21T00:53:13;101191.88;;;21.94;55.61
27613;BME280;15036;48.094;-1.690;2022-08-21T00:55:39;101195.16;;;21.64;56.25
27613;BME280;15036;48.094;-1.690;2022-08-21T00:58:05;101194.09;;;21.22;57.71
27613;BME280;15036;48.094;-1.690;2022-08-21T01:00:33;101193.06;;;21.28;57.53
27613;BME280;15036;48.094;-1.690;2022-08-21T01:02:59;101182.38;;;21.41;57.16
27613;BME280;15036;48.094;-1.690;2022-08-21T01:05:25;101189.13;;;21.94;55.43
27613;BME280;15036;48.094;-1.690;2022-08-21T01:07:51;101182.59;;;22.10;55.13
27613;BME280;15036;48.094;-1.690;2022-08-21T01:10:17;101174.81;;;22.43;54.17
27613;BME280;15036;48.094;-1.690;2022-08-21T01:12:43;101170.53;;;21.99;55.25
27613;BME280;15036;48.094;-1.690;2022-08-21T01:15:09;101165.16;;;22.19;54.46
27613;BME280;15036;48.094;-1.690;2022-08-21T01:17:35;101166.66;;;22.37;54.24
27613;BME280;15036;48.094;-1.690;2022-08-21T01:20:03;101166.38;;;22.33;53.87
27613;BME280;15036;48.094;-1.690;2022-08-21T01:22:29;101162.59;;;22.50;53.82
27613;BME280;15036;48.094;-1.690;2022-08-21T01:24:54;101168.94;;;22.40;53.77
27613;BME280;15036;48.094;-1.690;2022-08-21T01:27:20;101164.53;;;22.12;54.91
27613;BME280;15036;48.094;-1.690;2022-08-21T01:29:56;101160.75;;;22.60;53.42
27613;BME280;15036;48.094;-1.690;2022-08-21T01:32:23;101167.38;;;22.22;54.33
27613;BME280;15036;48.094;-1.690;2022-08-21T01:34:49;101166.66;;;22.00;54.90
27613;BME280;15036;48.094;-1.690;2022-08-21T01:37:15;101163.41;;;22.08;55.20
27613;BME280;15036;48.094;-1.690;2022-08-21T01:39:41;101166.47;;;22.43;54.07
27613;BME280;15036;48.094;-1.690;2022-08-21T01:42:07;101179.16;;;22.34;54.16
27613;BME280;15036;48.094;-1.690;2022-08-21T01:44:32;101189.28;;;21.82;55.55
27613;BME280;15036;48.094;-1.690;2022-08-21T01:46:58;101189.56;;;22.12;54.86
27613;BME280;15036;48.094;-1.690;2022-08-21T01:49:24;101176.22;;;21.83;55.55
27613;BME280;15036;48.094;-1.690;2022-08-21T01:51:49;101177.75;;;21.74;55.83
27613;BME280;15036;48.094;-1.690;2022-08-21T01:54:15;101177.47;;;21.75;56.20
27613;BME280;15036;48.094;-1.690;2022-08-21T01:56:42;101179.41;;;21.96;55.36
27613;BME280;15036;48.094;-1.690;2022-08-21T01:59:08;101176.16;;;20.69;59.08
27613;BME280;15036;48.094;-1.690;2022-08-21T02:01:34;101177.44;;;21.22;58.06
27613;BME280;15036;48.094;-1.690;2022-08-21T02:04:00;101178.03;;;20.47;60.16
27613;BME280;15036;48.094;-1.690;2022-08-21T02:06:25;101179.81;;;20.92;59.02
27613;BME280;15036;48.094;-1.690;2022-08-21T02:08:51;101181.16;;;20.72;59.77
27613;BME280;15036;48.094;-1.690;2022-08-21T02:11:16;101178.69;;;21.09;58.36
27613;BME280;15036;48.094;-1.690;2022-08-21T02:13:42;101181.31;;;20.28;60.91
27613;BME280;15036;48.094;-1.690;2022-08-21T02:16:07;101187.41;;;20.80;59.49
27613;BME280;15036;48.094;-1.690;2022-08-21T02:18:33;101190.03;;;20.36;60.83
27613;BME280;15036;48.094;-1.690;2022-08-21T02:20:58;101188.28;;;20.30;61.19
27613;BME280;15036;48.094;-1.690;2022-08-21T02:23:24;101185.59;;;20.19;61.39
27613;BME280;15036;48.094;-1.690;2022-08-21T02:25:49;101197.41;;;19.30;64.69
27613;BME280;15036;48.094;-1.690;2022-08-21T02:28:14;101195.69;;;19.52;63.97
27613;BME280;15036;48.094;-1.690;2022-08-21T02:30:42;101204.22;;;19.11;64.80
27613;BME280;15036;48.094;-1.690;2022-08-21T02:33:08;101200.28;;;18.95;65.95
27613;BME280;15036;48.094;-1.690;2022-08-21T02:35:35;101201.03;;;19.42;64.44
27613;BME280;15036;48.094;-1.690;2022-08-21T02:38:03;101199.97;;;19.31;64.92
27613;BME280;15036;48.094;-1.690;2022-08-21T02:40:29;101206.25;;;19.15;65.18
27613;BME280;15036;48.094;-1.690;2022-08-21T02:42:56;101194.38;;;19.71;62.92
27613;BME280;15036;48.094;-1.690;2022-08-21T02:45:21;101194.41;;;19.43;63.78
27613;BME280;15036;48.094;-1.690;2022-08-21T02:47:48;101204.56;;;20.27;61.57
27613;BME280;15036;48.094;-1.690;2022-08-21T02:50:13;101209.53;;;19.52;63.71
27613;BME280;15036;48.094;-1.690;2022-08-21T02:52:41;101209.66;;;19.57;63.15
27613;BME280;15036;48.094;-1.690;2022-08-21T02:55:07;101212.59;;;19.39;64.20
27613;BME280;15036;48.094;-1.690;2022-08-21T02:57:32;101204.13;;;19.45;63.80
27613;BME280;15036;48.094;-1.690;2022-08-21T02:59:57;101195.75;;;19.29;64.51
27613;BME280;15036;48.094;-1.690;2022-08-21T03:02:23;101191.25;;;19.51;64.15
27613;BME280;15036;48.094;-1.690;2022-08-21T03:04:48;101182.41;;;20.27;61.62
27613;BME280;15036;48.094;-1.690;2022-08-21T03:07:13;101175.78;;;20.28;61.23
27613;BME280;15036;48.094;-1.690;2022-08-21T03:09:40;101187.66;;;19.67;63.41
27613;BME280;15036;48.094;-1.690;2022-08-21T03:12:05;101174.13;;;20.15;61.98
27613;BME280;15036;48.094;-1.690;2022-08-21T03:14:30;101167.66;;;20.59;60.29
27613;BME280;15036;48.094;-1.690;2022-08-21T03:16:56;101160.41;;;20.97;59.18
27613;BME280;15036;48.094;-1.690;2022-08-21T03:19:21;101169.03;;;21.17;58.45
27613;BME280;15036;48.094;-1.690;2022-08-21T03:21:46;101161.44;;;20.91;59.22
27613;BME280;15036;48.094;-1.690;2022-08-21T03:24:11;101158.63;;;20.86;59.50
27613;BME280;15036;48.094;-1.690;2022-08-21T03:26:37;101170.03;;;20.89;59.20
27613;BME280;15036;48.094;-1.690;2022-08-21T03:29:02;101171.72;;;20.35;60.92
27613;BME280;15036;48.094;-1.690;2022-08-21T03:31:27;101158.09;;;20.50;60.58
27613;BME280;15036;48.094;-1.690;2022-08-21T03:33:56;101160.56;;;20.68;59.76
27613;BME280;15036;48.094;-1.690;2022-08-21T03:36:21;101161.53;;;20.57;59.97
27613;BME280;15036;48.094;-1.690;2022-08-21T03:38:46;101168.53;;;20.60;60.08
27613;BME280;15036;48.094;-1.690;2022-08-21T03:41:11;101158.09;;;20.89;59.17
27613;BME280;15036;48.094;-1.690;2022-08-21T03:43:37;101166.19;;;20.35;60.79
27613;BME280;15036;48.094;-1.690;2022-08-21T03:46:04;101158.22;;;20.99;58.77
27613;BME280;15036;48.094;-1.690;2022-08-21T03:48:30;101159.16;;;21.04;58.54
27613;BME280;15036;48.094;-1.690;2022-08-21T03:50:56;101156.09;;;20.46;60.29
27613;BME280;15036;48.094;-1.690;2022-08-21T03:53:21;101156.13;;;20.67;59.46
27613;BME280;15036;48.094;-1.690;2022-08-21T03:55:47;101157.47;;;19.99;61.95
27613;BME280;15036;48.094;-1.690;2022-08-21T03:58:17;101155.78;;;20.26;60.63
27613;BME280;15036;48.094;-1.690;2022-08-21T04:00:43;101144.59;;;20.37;60.76
27613;BME280;15036;48.094;-1.690;2022-08-21T04:03:08;101150.63;;;20.18;61.45
27613;BME280;15036;48.094;-1.690;2022-08-21T04:05:34;101142.59;;;20.71;59.72
27613;BME280;15036;48.094;-1.690;2022-08-21T04:08:03;101146.59;;;20.42;60.35
27613;BME280;15036;48.094;-1.690;2022-08-21T04:10:29;101150.94;;;20.54;59.89
27613;BME280;15036;48.094;-1.690;2022-08-21T04:12:55;101146.69;;;20.68;59.73
27613;BME280;15036;48.094;-1.690;2022-08-21T04:15:21;101144.31;;;20.55;60.16
27613;BME280;15036;48.094;-1.690;2022-08-21T04:17:46;101146.38;;;20.65;59.88
27613;BME280;15036;48.094;-1.690;2022-08-21T04:20:13;101150.72;;;19.61;62.53
27613;BME280;15036;48.094;-1.690;2022-08-21T04:22:38;101150.78;;;19.95;61.70
27613;BME280;15036;48.094;-1.690;2022-08-21T04:25:04;101160.22;;;19.26;64.07
27613;BME280;15036;48.094;-1.690;2022-08-21T04:27:29;101152.56;;;19.56;63.45
27613;BME280;15036;48.094;-1.690;2022-08-21T04:29:54;101153.25;;;19.63;63.54
27613;BME280;15036;48.094;-1.690;2022-08-21T04:32:23;101155.34;;;19.16;64.89
27613;BME280;15036;48.094;-1.690;2022-08-21T04:34:49;101146.66;;;20.14;61.57
27613;BME280;15036;48.094;-1.690;2022-08-21T04:37:14;101149.19;;;20.15;61.76
27613;BME280;15036;48.094;-1.690;2022-08-21T04:39:40;101153.28;;;19.35;64.23
27613;BME280;15036;48.094;-1.690;2022-08-21T04:42:06;101150.31;;;19.53;63.91
27613;BME280;15036;48.094;-1.690;2022-08-21T04:44:31;101137.19;;;19.65;63.06
27613;BME280;15036;48.094;-1.690;2022-08-21T04:46:57;101142.47;;;19.95;62.19
27613;BME280;15036;48.094;-1.690;2022-08-21T04:49:22;101151.19;;;19.86;62.51
27613;BME280;15036;48.094;-1.690;2022-08-21T04:51:47;101162.38;;;19.63;63.27
27613;BME280;15036;48.094;-1.690;2022-08-21T04:54:14;101162.25;;;19.42;63.89
27613;BME280;15036;48.094;-1.690;2022-08-21T04:56:43;101152.03;;;19.87;62.52
27613;BME280;15036;48.094;-1.690;2022-08-21T04:59:11;101160.63;;;20.19;61.51
27613;BME280;15036;48.094;-1.690;2022-08-21T05:01:37;101166.25;;;20.40;60.94
27613;BME280;15036;48.094;-1.690;2022-08-21T05:04:04;101159.78;;;20.51;60.41
27613;BME280;15036;48.094;-1.690;2022-08-21T05:06:31;101163.28;;;21.02;58.67
27613;BME280;15036;48.094;-1.690;2022-08-21T05:08:58;101167.56;;;20.71;59.48
27613;BME280;15036;48.094;-1.690;2022-08-21T05:11:24;101161.44;;;20.69;59.56
27613;BME280;15036;48.094;-1.690;2022-08-21T05:13:49;101167.00;;;20.52;60.23
27613;BME280;15036;48.094;-1.690;2022-08-21T05:16:15;101177.03;;;20.92;59.09
27613;BME280;15036;48.094;-1.690;2022-08-21T05:18:41;101165.72;;;19.94;61.83
27613;BME280;15036;48.094;-1.690;2022-08-21T05:21:06;101158.09;;;20.89;59.23
27613;BME280;15036;48.094;-1.690;2022-08-21T05:23:31;101162.34;;;20.74;59.56
27613;BME280;15036;48.094;-1.690;2022-08-21T05:25:57;101162.50;;;20.68;59.63
27613;BME280;15036;48.094;-1.690;2022-08-21T05:28:23;101163.00;;;20.82;59.46
27613;BME280;15036;48.094;-1.690;2022-08-21T05:30:48;101163.00;;;20.82;58.94
27613;BME280;15036;48.094;-1.690;2022-08-21T05:33:14;101167.34;;;20.56;60.08
27613;BME280;15036;48.094;-1.690;2022-08-21T05:35:39;101168.69;;;20.92;58.64
27613;BME280;15036;48.094;-1.690;2022-08-21T05:38:04;101180.41;;;20.22;60.98
27613;BME280;15036;48.094;-1.690;2022-08-21T05:40:30;101180.97;;;20.41;60.34
27613;BME280;15036;48.094;-1.690;2022-08-21T05:42:56;101176.44;;;20.90;58.96
27613;BME280;15036;48.094;-1.690;2022-08-21T05:45:26;101178.91;;;21.08;58.47
27613;BME280;15036;48.094;-1.690;2022-08-21T05:47:52;101176.44;;;20.90;58.95
27613;BME280;15036;48.094;-1.690;2022-08-21T05:50:17;101179.19;;;21.06;58.24
27613;BME280;15036;48.094;-1.690;2022-08-21T05:52:42;101180.44;;;21.15;57.93
27613;BME280;15036;48.094;-1.690;2022-08-21T05:55:08;101197.19;;;20.65;59.47
27613;BME280;15036;48.094;-1.690;2022-08-21T05:57:33;101195.63;;;20.74;59.30
27613;BME280;15036;48.094;-1.690;2022-08-21T05:59:58;101187.34;;;20.58;59.52
27613;BME280;15036;48.094;-1.690;2022-08-21T06:02:23;101198.44;;;20.41;60.00
27613;BME280;15036;48.094;-1.690;2022-08-21T06:04:49;101205.72;;;20.81;58.80
27613;BME280;15036;48.094;-1.690;2022-08-21T06:07:14;101208.13;;;20.55;59.85
27613;BME280;15036;48.094;-1.690;2022-08-21T06:09:39;101202.06;;;21.13;58.08
27613;BME280;15036;48.094;-1.690;2022-08-21T06:12:05;101196.28;;;21.20;57.89
27613;BME280;15036;48.094;-1.690;2022-08-21T06:14:31;101198.31;;;21.24;58.11
27613;BME280;15036;48.094;-1.690;2022-08-21T06:17:01;101196.50;;;21.35;57.56
27613;BME280;15036;48.094;-1.690;2022-08-21T06:19:26;101198.47;;;21.39;57.55
27613;BME280;15036;48.094;-1.690;2022-08-21T06:21:52;101196.94;;;21.48;57.13
27613;BME280;15036;48.094;-1.690;2022-08-21T06:24:17;101197.28;;;21.57;57.16
27613;BME280;15036;48.094;-1.690;2022-08-21T06:26:42;101185.97;;;21.64;56.79
27613;BME280;15036;48.094;-1.690;2022-08-21T06:29:07;101187.78;;;21.75;56.47
27613;BME280;15036;48.094;-1.690;2022-08-21T06:31:35;101191.13;;;21.77;56.54
27613;BME280;15036;48.094;-1.690;2022-08-21T06:34:00;101184.91;;;21.91;56.10
27613;BME280;15036;48.094;-1.690;2022-08-21T06:36:25;101172.78;;;22.02;55.93
27613;BME280;15036;48.094;-1.690;2022-08-21T06:38:51;101162.84;;;22.11;55.65
27613;BME280;15036;48.094;-1.690;2022-08-21T06:41:16;101163.78;;;22.22;55.47
27613;BME280;15036;48.094;-1.690;2022-08-21T06:43:41;101163.31;;;22.35;54.97
27613;BME280;15036;48.094;-1.690;2022-08-21T06:46:07;101175.06;;;22.42;54.83
27613;BME280;15036;48.094;-1.690;2022-08-21T06:48:32;101181.06;;;22.61;54.32
27613;BME280;15036;48.094;-1.690;2022-08-21T06:50:59;101186.69;;;22.66;53.74
27613;BME280;15036;48.094;-1.690;2022-08-21T06:53:25;101188.41;;;22.40;54.31
27613;BME280;15036;48.094;-1.690;2022-08-21T06:55:50;101196.97;;;22.65;53.72
27613;BME280;15036;48.094;-1.690;2022-08-21T06:58:16;101196.47;;;22.73;53.46
27613;BME280;15036;48.094;-1.690;2022-08-21T07:00:42;101186.78;;;22.86;53.20
27613;BME280;15036;48.094;-1.690;2022-08-21T07:03:16;101184.84;;;22.81;53.16
27613;BME280;15036;48.094;-1.690;2022-08-21T07:05:41;101185.72;;;22.50;53.18
27613;BME280;15036;48.094;-1.690;2022-08-21T07:08:07;101190.38;;;22.44;53.65
27613;BME280;15036;48.094;-1.690;2022-08-21T07:10:32;101185.72;;;22.92;52.85
27613;BME280;15036;48.094;-1.690;2022-08-21T07:12:57;101194.97;;;23.02;52.85
27613;BME280;15036;48.094;-1.690;2022-08-21T07:15:22;101190.19;;;22.93;52.95
27613;BME280;15036;48.094;-1.690;2022-08-21T07:17:48;101194.75;;;23.14;52.41
27613;BME280;15036;48.094;-1.690;2022-08-21T07:20:13;101192.41;;;22.96;52.65
27613;BME280;15036;48.094;-1.690;2022-08-21T07:22:38;101190.44;;;23.33;51.68
27613;BME280;15036;48.094;-1.690;2022-08-21T07:25:05;101179.53;;;23.32;52.30
27613;BME280;15036;48.094;-1.690;2022-08-21T07:27:31;101177.38;;;23.49;51.92
27613;BME280;15036;48.094;-1.690;2022-08-21T07:29:56;101172.69;;;23.69;51.46
27613;BME280;15036;48.094;-1.690;2022-08-21T07:32:22;101172.72;;;23.84;51.10
27613;BME280;15036;48.094;-1.690;2022-08-21T07:34:47;101179.16;;;23.18;51.44
27613;BME280;15036;48.094;-1.690;2022-08-21T07:37:12;101172.13;;;23.77;49.47
27613;BME280;15036;48.094;-1.690;2022-08-21T07:39:37;101176.34;;;23.95;49.42
27613;BME280;15036;48.094;-1.690;2022-08-21T07:42:03;101173.03;;;24.03;49.62
27613;BME280;15036;48.094;-1.690;2022-08-21T07:44:28;101169.66;;;23.96;49.84
27613;BME280;15036;48.094;-1.690;2022-08-21T07:46:53;101174.13;;;23.77;49.83
27613;BME280;15036;48.094;-1.690;2022-08-21T07:49:19;101160.19;;;24.02;49.45
27613;BME280;15036;48.094;-1.690;2022-08-21T07:51:44;101158.81;;;24.09;49.58
27613;BME280;15036;48.094;-1.690;2022-08-21T07:54:09;101156.31;;;24.23;49.80
27613;BME280;15036;48.094;-1.690;2022-08-21T07:56:34;101145.44;;;24.32;49.73
27613;BME280;15036;48.094;-1.690;2022-08-21T07:59:00;101150.44;;;24.50;48.97
27613;BME280;15036;48.094;-1.690;2022-08-21T08:01:27;101145.91;;;24.69;48.81
27613;BME280;15036;48.094;-1.690;2022-08-21T08:03:53;101150.38;;;24.80;48.72
27613;BME280;15036;48.094;-1.690;2022-08-21T08:06:18;101157.59;;;24.96;48.20
27613;BME280;15036;48.094;-1.690;2022-08-21T08:08:44;101161.16;;;25.12;47.88
27613;BME280;15036;48.094;-1.690;2022-08-21T08:11:10;101155.28;;;25.23;47.76
27613;BME280;15036;48.094;-1.690;2022-08-21T08:13:39;101155.19;;;25.38;47.44
27613;BME280;15036;48.094;-1.690;2022-08-21T08:16:05;101155.00;;;25.20;47.85
27613;BME280;15036;48.094;-1.690;2022-08-21T08:18:31;101158.84;;;25.34;47.72
27613;BME280;15036;48.094;-1.690;2022-08-21T08:20:57;101153.31;;;25.19;48.22
27613;BME280;15036;48.094;-1.690;2022-08-21T08:23:22;101158.28;;;25.32;47.50
27613;BME280;15036;48.094;-1.690;2022-08-21T08:25:48;101157.97;;;25.43;47.55
27613;BME280;15036;48.094;-1.690;2022-08-21T08:28:13;101157.66;;;25.50;47.26
27613;BME280;15036;48.094;-1.690;2022-08-21T08:30:38;101155.41;;;25.57;46.96
27613;BME280;15036;48.094;-1.690;2022-08-21T08:33:04;101148.88;;;25.71;46.89
27613;BME280;15036;48.094;-1.690;2022-08-21T08:35:29;101152.31;;;25.97;46.42
27613;BME280;15036;48.094;-1.690;2022-08-21T08:37:54;101150.91;;;26.00;46.34
27613;BME280;15036;48.094;-1.690;2022-08-21T08:40:37;101155.34;;;26.06;46.04
27613;BME280;15036;48.094;-1.690;2022-08-21T08:43:05;101155.34;;;26.06;45.98
27613;BME280;15036;48.094;-1.690;2022-08-21T08:45:30;101166.78;;;26.14;45.64
27613;BME280;15036;48.094;-1.690;2022-08-21T08:47:58;101165.72;;;26.39;44.92
27613;BME280;15036;48.094;-1.690;2022-08-21T08:50:33;101167.25;;;26.26;44.80
27613;BME280;15036;48.094;-1.690;2022-08-21T08:53:05;101167.22;;;26.60;44.22
27613;BME280;15036;48.094;-1.690;2022-08-21T08:55:38;101153.25;;;26.55;44.35
27613;BME280;15036;48.094;-1.690;2022-08-21T08:58:05;101153.06;;;26.75;43.97
27613;BME280;15036;48.094;-1.690;2022-08-21T09:00:31;101157.84;;;26.98;43.48
27613;BME280;15036;48.094;-1.690;2022-08-21T09:02:57;101162.44;;;26.60;43.87
27613;BME280;15036;48.094;-1.690;2022-08-21T09:05:29;101152.41;;;26.83;43.52
27613;BME280;15036;48.094;-1.690;2022-08-21T09:10:30;101149.97;;;27.00;42.78
27613;BME280;15036;48.094;-1.690;2022-08-21T09:13:01;101156.53;;;27.14;42.15
27613;BME280;15036;48.094;-1.690;2022-08-21T09:15:44;101143.00;;;27.21;42.05
27613;BME280;15036;48.094;-1.690;2022-08-21T09:26:07;101141.16;;;27.54;40.53
27613;BME280;15036;48.094;-1.690;2022-08-21T09:28:34;101146.63;;;27.83;40.25
27613;BME280;15036;48.094;-1.690;2022-08-21T09:31:00;101145.44;;;27.89;40.52
27613;BME280;15036;48.094;-1.690;2022-08-21T09:33:27;101140.00;;;28.11;40.40
27613;BME280;15036;48.094;-1.690;2022-08-21T09:35:54;101134.56;;;28.33;39.51
27613;BME280;15036;48.094;-1.690;2022-08-21T09:38:35;101134.63;;;28.47;39.41
27613;BME280;15036;48.094;-1.690;2022-08-21T09:41:10;101146.00;;;28.55;39.03
27613;BME280;15036;48.094;-1.690;2022-08-21T09:43:36;101148.44;;;28.62;38.40
27613;BME280;15036;48.094;-1.690;2022-08-21T09:46:07;101149.25;;;28.30;38.51
27613;BME280;15036;48.094;-1.690;2022-08-21T09:48:46;101151.25;;;28.43;38.50
27613;BME280;15036;48.094;-1.690;2022-08-21T09:53:54;101160.72;;;27.78;40.17
27613;BME280;15036;48.094;-1.690;2022-08-21T09:56:29;101162.41;;;27.97;39.61
27613;BME280;15036;48.094;-1.690;2022-08-21T10:01:43;101160.59;;;28.06;39.73
27613;BME280;15036;48.094;-1.690;2022-08-21T10:04:09;101156.28;;;28.14;39.85
27613;BME280;15036;48.094;-1.690;2022-08-21T10:06:35;101154.03;;;28.29;39.02
27613;BME280;15036;48.094;-1.690;2022-08-21T10:09:04;101153.38;;;27.82;39.84
27613;BME280;15036;48.094;-1.690;2022-08-21T10:11:30;101152.66;;;27.95;39.75
27613;BME280;15036;48.094;-1.690;2022-08-21T10:16:26;101152.56;;;28.00;39.91
27613;BME280;15036;48.094;-1.690;2022-08-21T10:19:05;101149.97;;;27.66;41.00
27613;BME280;15036;48.094;-1.690;2022-08-21T10:21:42;101149.72;;;27.44;41.69
27613;BME280;15036;48.094;-1.690;2022-08-21T10:24:20;101153.50;;;27.11;42.27
27613;BME280;15036;48.094;-1.690;2022-08-21T10:39:19;101152.63;;;26.92;45.69
27613;BME280;15036;48.094;-1.690;2022-08-21T10:41:55;101155.38;;;26.68;46.27
27613;BME280;15036;48.094;-1.690;2022-08-21T10:44:30;101143.19;;;26.83;45.63
27613;BME280;15036;48.094;-1.690;2022-08-21T10:47:00;101150.56;;;27.44;45.27
27613;BME280;15036;48.094;-1.690;2022-08-21T10:49:33;101149.63;;;27.07;45.28
27613;BME280;15036;48.094;-1.690;2022-08-21T10:55:02;101157.16;;;27.11;45.40
27613;BME280;15036;48.094;-1.690;2022-08-21T10:57:31;101158.31;;;27.29;44.62
27613;BME280;15036;48.094;-1.690;2022-08-21T11:00:03;101157.16;;;27.54;44.18
27613;BME280;15036;48.094;-1.690;2022-08-21T11:02:32;101151.00;;;27.33;44.23
27613;BME280;15036;48.094;-1.690;2022-08-21T11:05:02;101160.63;;;27.45;44.13
27613;BME280;15036;48.094;-1.690;2022-08-21T11:09:56;101156.88;;;27.74;43.54
27613;BME280;15036;48.094;-1.690;2022-08-21T11:14:51;101161.56;;;27.60;43.36
27613;BME280;15036;48.094;-1.690;2022-08-21T11:17:22;101163.56;;;27.59;43.16
27613;BME280;15036;48.094;-1.690;2022-08-21T11:19:53;101164.28;;;27.46;43.34
27613;BME280;15036;48.094;-1.690;2022-08-21T11:27:43;101162.31;;;27.23;44.11
27613;BME280;15036;48.094;-1.690;2022-08-21T11:30:08;101171.09;;;27.40;45.12
27613;BME280;15036;48.094;-1.690;2022-08-21T11:32:47;101167.84;;;27.28;45.65
27613;BME280;15036;48.094;-1.690;2022-08-21T11:40:26;101170.94;;;26.50;48.69
27613;BME280;15036;48.094;-1.690;2022-08-21T11:43:01;101181.94;;;26.08;50.39
27613;BME280;15036;48.094;-1.690;2022-08-21T11:46:17;101171.56;;;26.09;51.74
27613;BME280;15036;48.094;-1.690;2022-08-21T11:51:02;101177.69;;;25.08;55.25
27613;BME280;15036;48.094;-1.690;2022-08-21T11:53:35;101184.66;;;25.11;56.25
27613;BME280;15036;48.094;-1.690;2022-08-21T11:56:08;101184.06;;;25.14;57.50
27613;BME280;15036;48.094;-1.690;2022-08-21T11:58:39;101177.19;;;24.91;57.00
27613;BME280;15036;48.094;-1.690;2022-08-21T12:03:35;101169.41;;;24.43;59.22
27613;BME280;15036;48.094;-1.690;2022-08-21T12:06:02;101177.72;;;24.98;58.02
27613;BME280;15036;48.094;-1.690;2022-08-21T12:08:41;101175.53;;;24.75;58.25
27613;BME280;15036;48.094;-1.690;2022-08-21T12:16:29;101170.50;;;23.96;59.23
27613;BME280;15036;48.094;-1.690;2022-08-21T12:19:05;101172.78;;;24.20;58.76
27613;BME280;15036;48.094;-1.690;2022-08-21T12:21:30;101173.88;;;24.39;59.02
27613;BME280;15036;48.094;-1.690;2022-08-21T12:24:03;101174.44;;;24.41;59.75
27613;BME280;15036;48.094;-1.690;2022-08-21T12:26:36;101175.53;;;24.75;59.53
27613;BME280;15036;48.094;-1.690;2022-08-21T12:29:16;101171.88;;;24.89;60.19
27613;BME280;15036;48.094;-1.690;2022-08-21T12:31:48;101172.75;;;24.70;60.20
27613;BME280;15036;48.094;-1.690;2022-08-21T12:34:14;101164.63;;;24.83;60.24
27613;BME280;15036;48.094;-1.690;2022-08-21T12:36:43;101164.66;;;24.63;61.08
27613;BME280;15036;48.094;-1.690;2022-08-21T12:39:11;101159.03;;;24.93;60.65
27613;BME280;15036;48.094;-1.690;2022-08-21T12:42:00;101161.84;;;24.63;60.59
27613;BME280;15036;48.094;-1.690;2022-08-21T12:44:26;101164.06;;;24.66;61.01
27613;BME280;15036;48.094;-1.690;2022-08-21T12:47:11;101160.78;;;24.34;61.72
27613;BME280;15036;48.094;-1.690;2022-08-21T12:49:43;101155.44;;;24.68;61.03
27613;BME280;15036;48.094;-1.690;2022-08-21T12:52:19;101158.44;;;25.02;61.22
27613;BME280;15036;48.094;-1.690;2022-08-21T12:54:45;101148.59;;;25.14;61.30
27613;BME280;15036;48.094;-1.690;2022-08-21T12:59:45;101138.81;;;25.17;61.42
27613;BME280;15036;48.094;-1.690;2022-08-21T13:02:18;101128.81;;;25.59;60.43
27613;BME280;15036;48.094;-1.690;2022-08-21T13:04:45;101124.75;;;25.81;60.01
27613;BME280;15036;48.094;-1.690;2022-08-21T13:07:12;101119.19;;;25.75;59.71
27613;BME280;15036;48.094;-1.690;2022-08-21T13:09:41;101119.72;;;25.77;59.31
27613;BME280;15036;48.094;-1.690;2022-08-21T13:12:09;101120.75;;;25.92;58.52
27613;BME280;15036;48.094;-1.690;2022-08-21T13:14:35;101123.47;;;26.35;58.77
27613;BME280;15036;48.094;-1.690;2022-08-21T13:17:03;101124.97;;;26.28;58.20
27613;BME280;15036;48.094;-1.690;2022-08-21T13:19:28;101117.59;;;26.60;57.15
27613;BME280;15036;48.094;-1.690;2022-08-21T13:21:54;101112.53;;;26.62;56.90
27613;BME280;15036;48.094;-1.690;2022-08-21T13:24:30;101122.78;;;26.48;56.41
27613;BME280;15036;48.094;-1.690;2022-08-21T13:26:57;101116.91;;;26.50;56.18
27613;BME280;15036;48.094;-1.690;2022-08-21T13:29:27;101113.69;;;26.61;56.04
27613;BME280;15036;48.094;-1.690;2022-08-21T13:31:56;101122.84;;;26.43;56.30
27613;BME280;15036;48.094;-1.690;2022-08-21T13:34:22;101118.69;;;26.64;55.79
27613;BME280;15036;48.094;-1.690;2022-08-21T13:36:49;101116.94;;;26.45;56.42
27613;BME280;15036;48.094;-1.690;2022-08-21T13:39:16;101105.94;;;26.53;56.30
27613;BME280;15036;48.094;-1.690;2022-08-21T13:41:43;101102.78;;;26.60;55.57
27613;BME280;15036;48.094;-1.690;2022-08-21T13:44:15;101106.91;;;26.39;54.59